sensor_id;sensor_type;location;lat;lon;timestamp;P1;durP1;ratioP1;P2;durP2;ratioP2
20230;SDS011;10274;49.022;9.338;2022-12-11T00:01:07;10.93;;;7.00;;
20230;SDS011;10274;49.022;9.338;2022-12-11T00:03:34;9.40;;;6.60;;
20230;SDS011;10274;49.022;9.338;2022-12-11T00:06:03;12.37;;;6.77;;
20230;SDS011;10274;49.022;9.338;2022-12-11T00:08:30;10.37;;;7.07;;
20230;SDS011;10274;49.022;9.338;2022-12-11T00:10:58;10.37;;;6.93;;
20230;SDS011;10274;49.022;9.338;2022-12-11T00:13:25;10.67;;;7.13;;
20230;SDS011;10274;49.022;9.338;2022-12-11T00:15:52;12.27;;;7.57;;
20230;SDS011;10274;49.022;9.338;2022-12-11T00:18:19;12.47;;;6.63;;
20230;SDS011;10274;49.022;9.338;2022-12-11T00:20:45;12.10;;;7.87;;
20230;SDS011;10274;49.022;9.338;2022-12-11T00:23:12;10.17;;;6.70;;
20230;SDS011;10274;49.022;9.338;2022-12-11T00:25:40;10.97;;;7.43;;
20230;SDS011;10274;49.022;9.338;2022-12-11T00:28:09;11.40;;;7.67;;
20230;SDS011;10274;49.022;9.338;2022-12-11T00:30:37;13.83;;;8.13;;
20230;SDS011;10274;49.022;9.338;2022-12-11T00:33:04;10.93;;;7.30;;
20230;SDS011;10274;49.022;9.338;2022-12-11T00:35:31;12.50;;;7.30;;
20230;SDS011;10274;49.022;9.338;2022-12-11T00:37:57;11.57;;;7.60;;
20230;SDS011;10274;49.022;9.338;2022-12-11T00:40:24;9.73;;;6.47;;
20230;SDS011;10274;49.022;9.338;2022-12-11T00:42:51;12.17;;;8.07;;
20230;SDS011;10274;49.022;9.338;2022-12-11T00:45:19;9.93;;;7.47;;
20230;SDS011;10274;49.022;9.338;2022-12-11T00:47:46;14.00;;;8.30;;
20230;SDS011;10274;49.022;9.338;2022-12-11T00:50:12;11.67;;;7.43;;
20230;SDS011;10274;49.022;9.338;2022-12-11T00:52:39;13.13;;;8.37;;
20230;SDS011;10274;49.022;9.338;2022-12-11T00:55:06;12.80;;;7.67;;
20230;SDS011;10274;49.022;9.338;2022-12-11T00:57:33;13.17;;;7.27;;
20230;SDS011;10274;49.022;9.338;2022-12-11T00:59:59;10.47;;;7.63;;
20230;SDS011;10274;49.022;9.338;2022-12-11T01:02:27;11.07;;;6.93;;
20230;SDS011;10274;49.022;9.338;2022-12-11T01:04:54;13.80;;;8.33;;
20230;SDS011;10274;49.022;9.338;2022-12-11T01:07:21;13.30;;;7.70;;
20230;SDS011;10274;49.022;9.338;2022-12-11T01:09:47;11.63;;;6.93;;
20230;SDS011;10274;49.022;9.338;2022-12-11T01:12:32;12.70;;;8.23;;
20230;SDS011;10274;49.022;9.338;2022-12-11T01:14:58;12.43;;;8.40;;
20230;SDS011;10274;49.022;9.338;2022-12-11T01:17:25;12.27;;;7.17;;
20230;SDS011;10274;49.022;9.338;2022-12-11T01:19:53;10.63;;;6.47;;
20230;SDS011;10274;49.022;9.338;2022-12-11T01:22:20;11.37;;;6.90;;
20230;SDS011;10274;49.022;9.338;2022-12-11T01:24:47;11.93;;;7.57;;
20230;SDS011;10274;49.022;9.338;2022-12-11T01:27:14;11.40;;;6.87;;
20230;SDS011;10274;49.022;9.338;2022-12-11T01:29:41;12.07;;;6.10;;
20230;SDS011;10274;49.022;9.338;2022-12-11T01:32:07;10.77;;;6.83;;
20230;SDS011;10274;49.022;9.338;2022-12-11T01:34:34;8.93;;;6.50;;
20230;SDS011;10274;49.022;9.338;2022-12-11T01:37:02;10.67;;;6.63;;
20230;SDS011;10274;49.022;9.338;2022-12-11T01:39:29;9.90;;;6.37;;
20230;SDS011;10274;49.022;9.338;2022-12-11T01:41:56;8.87;;;5.90;;
20230;SDS011;10274;49.022;9.338;2022-12-11T01:47:42;7.17;;;5.17;;
20230;SDS011;10274;49.022;9.338;2022-12-11T01:50:09;8.90;;;6.17;;
20230;SDS011;10274;49.022;9.338;2022-12-11T01:52:37;8.17;;;5.23;;
20230;SDS011;10274;49.022;9.338;2022-12-11T01:55:06;9.20;;;6.00;;
20230;SDS011;10274;49.022;9.338;2022-12-11T01:57:34;8.27;;;5.67;;
20230;SDS011;10274;49.022;9.338;2022-12-11T02:00:02;7.77;;;5.33;;
20230;SDS011;10274;49.022;9.338;2022-12-11T02:02:30;7.73;;;5.53;;
20230;SDS011;10274;49.022;9.338;2022-12-11T02:04:58;9.07;;;5.70;;
20230;SDS011;10274;49.022;9.338;2022-12-11T02:07:26;7.70;;;5.37;;
20230;SDS011;10274;49.022;9.338;2022-12-11T02:09:56;6.83;;;5.13;;
20230;SDS011;10274;49.022;9.338;2022-12-11T02:12:23;6.73;;;4.63;;
20230;SDS011;10274;49.022;9.338;2022-12-11T02:14:58;7.90;;;5.37;;
20230;SDS011;10274;49.022;9.338;2022-12-11T02:17:32;8.60;;;5.40;;
20230;SDS011;10274;49.022;9.338;2022-12-11T02:20:05;7.80;;;5.60;;
20230;SDS011;10274;49.022;9.338;2022-12-11T02:22:41;8.10;;;5.03;;
20230;SDS011;10274;49.022;9.338;2022-12-11T02:25:21;6.97;;;4.60;;
20230;SDS011;10274;49.022;9.338;2022-12-11T02:27:53;5.07;;;4.10;;
20230;SDS011;10274;49.022;9.338;2022-12-11T02:30:31;7.03;;;4.50;;
20230;SDS011;10274;49.022;9.338;2022-12-11T02:33:00;6.27;;;4.57;;
20230;SDS011;10274;49.022;9.338;2022-12-11T02:35:29;5.97;;;4.00;;
20230;SDS011;10274;49.022;9.338;2022-12-11T02:37:58;8.40;;;5.40;;
20230;SDS011;10274;49.022;9.338;2022-12-11T02:40:29;5.83;;;4.57;;
20230;SDS011;10274;49.022;9.338;2022-12-11T02:43:01;8.07;;;5.60;;
20230;SDS011;10274;49.022;9.338;2022-12-11T02:45:31;6.87;;;5.03;;
20230;SDS011;10274;49.022;9.338;2022-12-11T02:48:00;7.60;;;4.70;;
20230;SDS011;10274;49.022;9.338;2022-12-11T02:50:29;7.07;;;5.00;;
20230;SDS011;10274;49.022;9.338;2022-12-11T02:52:58;6.73;;;4.90;;
20230;SDS011;10274;49.022;9.338;2022-12-11T02:55:27;7.67;;;5.03;;
20230;SDS011;10274;49.022;9.338;2022-12-11T02:57:58;6.20;;;4.50;;
20230;SDS011;10274;49.022;9.338;2022-12-11T03:00:30;9.17;;;5.57;;
20230;SDS011;10274;49.022;9.338;2022-12-11T03:02:57;8.50;;;5.70;;
20230;SDS011;10274;49.022;9.338;2022-12-11T03:05:24;8.67;;;5.43;;
20230;SDS011;10274;49.022;9.338;2022-12-11T03:07:52;7.53;;;5.07;;
20230;SDS011;10274;49.022;9.338;2022-12-11T03:10:18;7.33;;;6.00;;
20230;SDS011;10274;49.022;9.338;2022-12-11T03:12:46;9.80;;;5.60;;
20230;SDS011;10274;49.022;9.338;2022-12-11T03:15:16;9.70;;;5.63;;
20230;SDS011;10274;49.022;9.338;2022-12-11T03:17:49;7.53;;;5.30;;
20230;SDS011;10274;49.022;9.338;2022-12-11T03:20:27;8.23;;;5.90;;
20230;SDS011;10274;49.022;9.338;2022-12-11T03:23:01;8.23;;;5.33;;
20230;SDS011;10274;49.022;9.338;2022-12-11T03:25:35;10.03;;;5.63;;
20230;SDS011;10274;49.022;9.338;2022-12-11T03:28:09;6.67;;;5.07;;
20230;SDS011;10274;49.022;9.338;2022-12-11T03:30:39;8.33;;;6.00;;
20230;SDS011;10274;49.022;9.338;2022-12-11T03:33:08;8.77;;;5.67;;
20230;SDS011;10274;49.022;9.338;2022-12-11T03:35:39;8.53;;;6.13;;
20230;SDS011;10274;49.022;9.338;2022-12-11T03:38:10;9.17;;;6.17;;
20230;SDS011;10274;49.022;9.338;2022-12-11T03:40:40;12.67;;;7.20;;
20230;SDS011;10274;49.022;9.338;2022-12-11T03:43:10;12.23;;;7.10;;
20230;SDS011;10274;49.022;9.338;2022-12-11T03:45:37;10.90;;;7.13;;
20230;SDS011;10274;49.022;9.338;2022-12-11T03:48:05;10.47;;;7.37;;
20230;SDS011;10274;49.022;9.338;2022-12-11T03:50:37;8.53;;;6.10;;
20230;SDS011;10274;49.022;9.338;2022-12-11T03:53:05;12.03;;;6.90;;
20230;SDS011;10274;49.022;9.338;2022-12-11T03:55:33;10.00;;;7.27;;
20230;SDS011;10274;49.022;9.338;2022-12-11T03:58:02;12.17;;;7.53;;
20230;SDS011;10274;49.022;9.338;2022-12-11T04:00:29;12.67;;;8.10;;
20230;SDS011;10274;49.022;9.338;2022-12-11T04:02:56;11.77;;;8.17;;
20230;SDS011;10274;49.022;9.338;2022-12-11T04:05:39;12.60;;;8.00;;
20230;SDS011;10274;49.022;9.338;2022-12-11T04:08:07;12.13;;;7.30;;
20230;SDS011;10274;49.022;9.338;2022-12-11T04:10:33;13.23;;;8.20;;
20230;SDS011;10274;49.022;9.338;2022-12-11T04:13:00;12.47;;;8.07;;
20230;SDS011;10274;49.022;9.338;2022-12-11T04:15:27;10.97;;;6.93;;
20230;SDS011;10274;49.022;9.338;2022-12-11T04:17:53;11.20;;;7.67;;
20230;SDS011;10274;49.022;9.338;2022-12-11T04:20:37;10.53;;;7.33;;
20230;SDS011;10274;49.022;9.338;2022-12-11T04:23:22;16.33;;;8.43;;
20230;SDS011;10274;49.022;9.338;2022-12-11T04:26:07;13.53;;;7.87;;
20230;SDS011;10274;49.022;9.338;2022-12-11T04:28:35;12.83;;;8.03;;
20230;SDS011;10274;49.022;9.338;2022-12-11T04:31:03;12.70;;;7.43;;
20230;SDS011;10274;49.022;9.338;2022-12-11T04:33:30;13.07;;;9.07;;
20230;SDS011;10274;49.022;9.338;2022-12-11T04:35:56;13.10;;;7.63;;
20230;SDS011;10274;49.022;9.338;2022-12-11T04:38:25;14.67;;;7.63;;
20230;SDS011;10274;49.022;9.338;2022-12-11T04:40:56;12.60;;;7.60;;
20230;SDS011;10274;49.022;9.338;2022-12-11T04:43:23;11.70;;;7.80;;
20230;SDS011;10274;49.022;9.338;2022-12-11T04:45:59;12.50;;;7.70;;
20230;SDS011;10274;49.022;9.338;2022-12-11T04:48:26;13.03;;;8.27;;
20230;SDS011;10274;49.022;9.338;2022-12-11T04:50:53;12.07;;;7.67;;
20230;SDS011;10274;49.022;9.338;2022-12-11T04:53:20;16.07;;;9.03;;
20230;SDS011;10274;49.022;9.338;2022-12-11T04:55:48;15.47;;;8.53;;
20230;SDS011;10274;49.022;9.338;2022-12-11T04:58:14;14.20;;;7.93;;
20230;SDS011;10274;49.022;9.338;2022-12-11T05:00:41;14.00;;;9.23;;
20230;SDS011;10274;49.022;9.338;2022-12-11T05:03:08;12.63;;;8.57;;
20230;SDS011;10274;49.022;9.338;2022-12-11T05:05:35;11.20;;;8.20;;
20230;SDS011;10274;49.022;9.338;2022-12-11T05:08:02;13.20;;;9.00;;
20230;SDS011;10274;49.022;9.338;2022-12-11T05:10:29;13.60;;;7.37;;
20230;SDS011;10274;49.022;9.338;2022-12-11T05:12:57;10.60;;;7.33;;
20230;SDS011;10274;49.022;9.338;2022-12-11T05:15:24;12.33;;;8.13;;
20230;SDS011;10274;49.022;9.338;2022-12-11T05:17:51;12.60;;;7.37;;
20230;SDS011;10274;49.022;9.338;2022-12-11T05:20:17;12.83;;;7.73;;
20230;SDS011;10274;49.022;9.338;2022-12-11T05:22:44;11.90;;;8.10;;
20230;SDS011;10274;49.022;9.338;2022-12-11T05:25:11;12.17;;;7.87;;
20230;SDS011;10274;49.022;9.338;2022-12-11T05:27:38;12.90;;;8.33;;
20230;SDS011;10274;49.022;9.338;2022-12-11T05:30:07;12.53;;;7.73;;
20230;SDS011;10274;49.022;9.338;2022-12-11T05:32:34;13.20;;;8.43;;
20230;SDS011;10274;49.022;9.338;2022-12-11T05:35:01;14.20;;;8.57;;
20230;SDS011;10274;49.022;9.338;2022-12-11T05:37:28;14.33;;;8.20;;
20230;SDS011;10274;49.022;9.338;2022-12-11T05:39:55;13.50;;;7.57;;
20230;SDS011;10274;49.022;9.338;2022-12-11T05:42:22;14.70;;;8.77;;
20230;SDS011;10274;49.022;9.338;2022-12-11T05:44:48;12.20;;;8.30;;
20230;SDS011;10274;49.022;9.338;2022-12-11T05:47:16;12.37;;;7.97;;
20230;SDS011;10274;49.022;9.338;2022-12-11T05:49:44;12.40;;;8.43;;
20230;SDS011;10274;49.022;9.338;2022-12-11T05:52:11;13.77;;;8.70;;
20230;SDS011;10274;49.022;9.338;2022-12-11T05:54:38;14.10;;;8.10;;
20230;SDS011;10274;49.022;9.338;2022-12-11T05:57:04;15.53;;;9.00;;
20230;SDS011;10274;49.022;9.338;2022-12-11T05:59:31;15.20;;;9.67;;
20230;SDS011;10274;49.022;9.338;2022-12-11T06:01:58;13.13;;;8.23;;
20230;SDS011;10274;49.022;9.338;2022-12-11T06:04:26;12.93;;;8.17;;
20230;SDS011;10274;49.022;9.338;2022-12-11T06:06:53;12.30;;;7.67;;
20230;SDS011;10274;49.022;9.338;2022-12-11T06:09:20;13.53;;;9.43;;
20230;SDS011;10274;49.022;9.338;2022-12-11T06:11:46;13.00;;;8.10;;
20230;SDS011;10274;49.022;9.338;2022-12-11T06:14:13;11.60;;;7.47;;
20230;SDS011;10274;49.022;9.338;2022-12-11T06:16:40;13.80;;;8.30;;
20230;SDS011;10274;49.022;9.338;2022-12-11T06:19:10;10.90;;;6.93;;
20230;SDS011;10274;49.022;9.338;2022-12-11T06:21:40;12.50;;;8.27;;
20230;SDS011;10274;49.022;9.338;2022-12-11T06:24:09;12.97;;;8.00;;
20230;SDS011;10274;49.022;9.338;2022-12-11T06:26:36;12.10;;;8.23;;
20230;SDS011;10274;49.022;9.338;2022-12-11T06:29:03;12.30;;;8.20;;
20230;SDS011;10274;49.022;9.338;2022-12-11T06:31:30;11.63;;;7.87;;
20230;SDS011;10274;49.022;9.338;2022-12-11T06:33:56;11.63;;;7.90;;
20230;SDS011;10274;49.022;9.338;2022-12-11T06:36:23;14.30;;;8.33;;
20230;SDS011;10274;49.022;9.338;2022-12-11T06:38:52;10.07;;;7.17;;
20230;SDS011;10274;49.022;9.338;2022-12-11T06:41:20;14.90;;;8.83;;
20230;SDS011;10274;49.022;9.338;2022-12-11T06:43:47;14.00;;;8.43;;
20230;SDS011;10274;49.022;9.338;2022-12-11T06:46:15;14.70;;;8.00;;
20230;SDS011;10274;49.022;9.338;2022-12-11T06:48:43;13.37;;;8.87;;
20230;SDS011;10274;49.022;9.338;2022-12-11T06:51:11;12.97;;;8.47;;
20230;SDS011;10274;49.022;9.338;2022-12-11T06:53:39;12.20;;;8.07;;
20230;SDS011;10274;49.022;9.338;2022-12-11T06:56:08;13.90;;;8.37;;
20230;SDS011;10274;49.022;9.338;2022-12-11T06:58:36;13.90;;;8.57;;
20230;SDS011;10274;49.022;9.338;2022-12-11T07:01:04;15.93;;;9.17;;
20230;SDS011;10274;49.022;9.338;2022-12-11T07:03:39;14.13;;;9.77;;
20230;SDS011;10274;49.022;9.338;2022-12-11T07:06:06;15.37;;;7.97;;
20230;SDS011;10274;49.022;9.338;2022-12-11T07:08:33;17.50;;;9.30;;
20230;SDS011;10274;49.022;9.338;2022-12-11T07:11:03;13.77;;;8.73;;
20230;SDS011;10274;49.022;9.338;2022-12-11T07:13:32;14.30;;;9.43;;
20230;SDS011;10274;49.022;9.338;2022-12-11T07:15:59;12.27;;;7.80;;
20230;SDS011;10274;49.022;9.338;2022-12-11T07:18:28;13.70;;;8.87;;
20230;SDS011;10274;49.022;9.338;2022-12-11T07:20:56;17.60;;;9.90;;
20230;SDS011;10274;49.022;9.338;2022-12-11T07:23:24;17.40;;;9.70;;
20230;SDS011;10274;49.022;9.338;2022-12-11T07:25:51;18.20;;;10.10;;
20230;SDS011;10274;49.022;9.338;2022-12-11T07:28:17;13.47;;;8.67;;
20230;SDS011;10274;49.022;9.338;2022-12-11T07:30:45;20.27;;;10.57;;
20230;SDS011;10274;49.022;9.338;2022-12-11T07:33:12;15.90;;;9.80;;
20230;SDS011;10274;49.022;9.338;2022-12-11T07:35:39;22.60;;;13.57;;
20230;SDS011;10274;49.022;9.338;2022-12-11T07:38:06;23.93;;;11.47;;
20230;SDS011;10274;49.022;9.338;2022-12-11T07:40:33;13.73;;;9.43;;
20230;SDS011;10274;49.022;9.338;2022-12-11T07:43:00;15.07;;;8.83;;
20230;SDS011;10274;49.022;9.338;2022-12-11T07:45:27;17.93;;;10.67;;
20230;SDS011;10274;49.022;9.338;2022-12-11T07:47:55;17.93;;;10.30;;
20230;SDS011;10274;49.022;9.338;2022-12-11T07:50:23;16.80;;;9.77;;
20230;SDS011;10274;49.022;9.338;2022-12-11T07:52:49;13.93;;;8.70;;
20230;SDS011;10274;49.022;9.338;2022-12-11T07:55:16;15.10;;;7.57;;
20230;SDS011;10274;49.022;9.338;2022-12-11T07:57:43;15.20;;;9.97;;
20230;SDS011;10274;49.022;9.338;2022-12-11T08:00:10;16.43;;;9.73;;
20230;SDS011;10274;49.022;9.338;2022-12-11T08:02:37;12.53;;;9.10;;
20230;SDS011;10274;49.022;9.338;2022-12-11T08:05:06;17.70;;;9.57;;
20230;SDS011;10274;49.022;9.338;2022-12-11T08:07:33;14.07;;;9.57;;
20230;SDS011;10274;49.022;9.338;2022-12-11T08:10:00;14.53;;;8.70;;
20230;SDS011;10274;49.022;9.338;2022-12-11T08:12:27;16.97;;;9.53;;
20230;SDS011;10274;49.022;9.338;2022-12-11T08:14:54;14.27;;;9.13;;
20230;SDS011;10274;49.022;9.338;2022-12-11T08:17:21;15.13;;;9.73;;
20230;SDS011;10274;49.022;9.338;2022-12-11T08:19:47;16.07;;;9.70;;
20230;SDS011;10274;49.022;9.338;2022-12-11T08:22:15;13.77;;;9.03;;
20230;SDS011;10274;49.022;9.338;2022-12-11T08:24:42;16.80;;;8.83;;
20230;SDS011;10274;49.022;9.338;2022-12-11T08:27:09;15.20;;;9.50;;
20230;SDS011;10274;49.022;9.338;2022-12-11T08:29:36;15.13;;;8.90;;
20230;SDS011;10274;49.022;9.338;2022-12-11T08:32:03;18.27;;;11.57;;
20230;SDS011;10274;49.022;9.338;2022-12-11T08:34:30;17.43;;;10.13;;
20230;SDS011;10274;49.022;9.338;2022-12-11T08:36:56;16.50;;;9.70;;
20230;SDS011;10274;49.022;9.338;2022-12-11T08:39:24;14.40;;;9.07;;
20230;SDS011;10274;49.022;9.338;2022-12-11T08:41:52;16.30;;;10.07;;
20230;SDS011;10274;49.022;9.338;2022-12-11T08:44:18;15.43;;;9.77;;
20230;SDS011;10274;49.022;9.338;2022-12-11T08:46:48;17.30;;;9.10;;
20230;SDS011;10274;49.022;9.338;2022-12-11T08:49:15;15.90;;;9.23;;
20230;SDS011;10274;49.022;9.338;2022-12-11T08:51:42;13.23;;;8.57;;
20230;SDS011;10274;49.022;9.338;2022-12-11T08:54:09;14.07;;;8.63;;
20230;SDS011;10274;49.022;9.338;2022-12-11T08:56:37;15.17;;;8.73;;
20230;SDS011;10274;49.022;9.338;2022-12-11T08:59:04;15.70;;;9.77;;
20230;SDS011;10274;49.022;9.338;2022-12-11T09:01:31;18.63;;;9.47;;
20230;SDS011;10274;49.022;9.338;2022-12-11T09:03:58;15.63;;;8.97;;
20230;SDS011;10274;49.022;9.338;2022-12-11T09:06:25;15.40;;;9.37;;
20230;SDS011;10274;49.022;9.338;2022-12-11T09:08:53;19.20;;;10.83;;
20230;SDS011;10274;49.022;9.338;2022-12-11T09:11:22;16.63;;;9.30;;
20230;SDS011;10274;49.022;9.338;2022-12-11T09:13:52;15.57;;;9.03;;
20230;SDS011;10274;49.022;9.338;2022-12-11T09:16:20;17.53;;;10.03;;
20230;SDS011;10274;49.022;9.338;2022-12-11T09:18:49;15.63;;;9.43;;
20230;SDS011;10274;49.022;9.338;2022-12-11T09:21:18;16.27;;;9.60;;
20230;SDS011;10274;49.022;9.338;2022-12-11T09:23:47;15.90;;;10.10;;
20230;SDS011;10274;49.022;9.338;2022-12-11T09:26:15;14.90;;;9.17;;
20230;SDS011;10274;49.022;9.338;2022-12-11T09:28:42;16.67;;;9.70;;
20230;SDS011;10274;49.022;9.338;2022-12-11T09:31:12;16.70;;;9.77;;
20230;SDS011;10274;49.022;9.338;2022-12-11T09:33:40;15.77;;;9.73;;
20230;SDS011;10274;49.022;9.338;2022-12-11T09:36:08;16.63;;;10.27;;
20230;SDS011;10274;49.022;9.338;2022-12-11T09:38:35;14.43;;;9.13;;
20230;SDS011;10274;49.022;9.338;2022-12-11T09:41:06;16.37;;;10.70;;
20230;SDS011;10274;49.022;9.338;2022-12-11T09:43:48;16.30;;;10.07;;
20230;SDS011;10274;49.022;9.338;2022-12-11T09:46:20;15.87;;;9.53;;
20230;SDS011;10274;49.022;9.338;2022-12-11T09:48:47;13.90;;;8.87;;
20230;SDS011;10274;49.022;9.338;2022-12-11T09:51:16;17.77;;;9.60;;
20230;SDS011;10274;49.022;9.338;2022-12-11T09:53:48;15.20;;;10.13;;
20230;SDS011;10274;49.022;9.338;2022-12-11T09:56:17;14.03;;;9.20;;
20230;SDS011;10274;49.022;9.338;2022-12-11T09:58:53;15.27;;;8.80;;
20230;SDS011;10274;49.022;9.338;2022-12-11T10:01:28;16.60;;;9.93;;
20230;SDS011;10274;49.022;9.338;2022-12-11T10:04:08;17.47;;;9.23;;
20230;SDS011;10274;49.022;9.338;2022-12-11T10:06:58;16.50;;;8.80;;
20230;SDS011;10274;49.022;9.338;2022-12-11T10:09:33;17.80;;;9.40;;
20230;SDS011;10274;49.022;9.338;2022-12-11T10:12:13;17.07;;;9.90;;
20230;SDS011;10274;49.022;9.338;2022-12-11T10:14:53;18.00;;;9.67;;
20230;SDS011;10274;49.022;9.338;2022-12-11T10:17:35;18.30;;;9.97;;
20230;SDS011;10274;49.022;9.338;2022-12-11T10:20:05;16.30;;;8.90;;
20230;SDS011;10274;49.022;9.338;2022-12-11T10:22:42;19.83;;;11.63;;
20230;SDS011;10274;49.022;9.338;2022-12-11T10:25:13;14.50;;;8.67;;
20230;SDS011;10274;49.022;9.338;2022-12-11T10:27:45;13.17;;;8.27;;
20230;SDS011;10274;49.022;9.338;2022-12-11T10:30:14;15.40;;;9.07;;
20230;SDS011;10274;49.022;9.338;2022-12-11T10:32:46;13.83;;;8.40;;
20230;SDS011;10274;49.022;9.338;2022-12-11T10:35:17;12.57;;;8.07;;
20230;SDS011;10274;49.022;9.338;2022-12-11T10:37:49;16.40;;;9.83;;
20230;SDS011;10274;49.022;9.338;2022-12-11T10:40:16;16.17;;;9.83;;
20230;SDS011;10274;49.022;9.338;2022-12-11T10:42:50;14.17;;;8.17;;
20230;SDS011;10274;49.022;9.338;2022-12-11T10:45:18;16.10;;;9.47;;
20230;SDS011;10274;49.022;9.338;2022-12-11T10:47:46;13.57;;;8.30;;
20230;SDS011;10274;49.022;9.338;2022-12-11T10:50:22;15.77;;;9.53;;
20230;SDS011;10274;49.022;9.338;2022-12-11T10:52:50;15.73;;;8.90;;
20230;SDS011;10274;49.022;9.338;2022-12-11T10:55:19;17.93;;;9.57;;
20230;SDS011;10274;49.022;9.338;2022-12-11T10:57:52;17.33;;;8.73;;
20230;SDS011;10274;49.022;9.338;2022-12-11T11:00:28;13.50;;;8.63;;
20230;SDS011;10274;49.022;9.338;2022-12-11T11:02:59;17.40;;;9.20;;
20230;SDS011;10274;49.022;9.338;2022-12-11T11:05:27;21.57;;;10.07;;
20230;SDS011;10274;49.022;9.338;2022-12-11T11:08:03;14.77;;;8.70;;
20230;SDS011;10274;49.022;9.338;2022-12-11T11:10:37;15.67;;;10.07;;
20230;SDS011;10274;49.022;9.338;2022-12-11T11:13:14;17.50;;;10.17;;
20230;SDS011;10274;49.022;9.338;2022-12-11T11:15:41;17.07;;;8.57;;
20230;SDS011;10274;49.022;9.338;2022-12-11T11:18:10;16.37;;;8.00;;
20230;SDS011;10274;49.022;9.338;2022-12-11T11:20:44;14.43;;;8.67;;
20230;SDS011;10274;49.022;9.338;2022-12-11T11:23:13;14.83;;;9.03;;
20230;SDS011;10274;49.022;9.338;2022-12-11T11:25:47;12.17;;;7.10;;
20230;SDS011;10274;49.022;9.338;2022-12-11T11:28:17;15.43;;;8.37;;
20230;SDS011;10274;49.022;9.338;2022-12-11T11:30:53;12.83;;;7.90;;
20230;SDS011;10274;49.022;9.338;2022-12-11T11:33:25;11.90;;;7.63;;
20230;SDS011;10274;49.022;9.338;2022-12-11T11:35:54;12.47;;;7.67;;
20230;SDS011;10274;49.022;9.338;2022-12-11T11:38:22;12.97;;;7.40;;
20230;SDS011;10274;49.022;9.338;2022-12-11T11:40:53;15.00;;;8.60;;
20230;SDS011;10274;49.022;9.338;2022-12-11T11:43:30;13.27;;;8.23;;
20230;SDS011;10274;49.022;9.338;2022-12-11T11:46:03;11.50;;;7.40;;
20230;SDS011;10274;49.022;9.338;2022-12-11T11:48:39;10.57;;;6.37;;
20230;SDS011;10274;49.022;9.338;2022-12-11T11:51:14;11.87;;;6.83;;
20230;SDS011;10274;49.022;9.338;2022-12-11T11:53:44;15.07;;;8.17;;
20230;SDS011;10274;49.022;9.338;2022-12-11T11:56:19;17.03;;;9.00;;
20230;SDS011;10274;49.022;9.338;2022-12-11T11:58:50;15.63;;;9.23;;
20230;SDS011;10274;49.022;9.338;2022-12-11T12:01:25;16.30;;;8.27;;
20230;SDS011;10274;49.022;9.338;2022-12-11T12:03:53;12.67;;;7.33;;
20230;SDS011;10274;49.022;9.338;2022-12-11T12:06:33;14.87;;;8.43;;
20230;SDS011;10274;49.022;9.338;2022-12-11T12:09:14;11.33;;;8.13;;
20230;SDS011;10274;49.022;9.338;2022-12-11T12:11:52;11.57;;;7.57;;
20230;SDS011;10274;49.022;9.338;2022-12-11T12:14:28;11.67;;;7.73;;
20230;SDS011;10274;49.022;9.338;2022-12-11T12:17:02;16.47;;;10.23;;
20230;SDS011;10274;49.022;9.338;2022-12-11T12:19:40;15.30;;;8.73;;
20230;SDS011;10274;49.022;9.338;2022-12-11T12:22:14;14.40;;;8.20;;
20230;SDS011;10274;49.022;9.338;2022-12-11T12:24:51;12.23;;;7.53;;
20230;SDS011;10274;49.022;9.338;2022-12-11T12:27:27;13.73;;;7.10;;
20230;SDS011;10274;49.022;9.338;2022-12-11T12:30:00;13.00;;;7.03;;
20230;SDS011;10274;49.022;9.338;2022-12-11T12:32:31;11.50;;;7.43;;
20230;SDS011;10274;49.022;9.338;2022-12-11T12:35:12;13.50;;;7.63;;
20230;SDS011;10274;49.022;9.338;2022-12-11T12:37:50;10.80;;;6.93;;
20230;SDS011;10274;49.022;9.338;2022-12-11T12:40:25;11.23;;;7.77;;
20230;SDS011;10274;49.022;9.338;2022-12-11T12:42:57;10.57;;;5.87;;
20230;SDS011;10274;49.022;9.338;2022-12-11T12:45:31;9.23;;;6.13;;
20230;SDS011;10274;49.022;9.338;2022-12-11T12:48:05;8.80;;;5.67;;
20230;SDS011;10274;49.022;9.338;2022-12-11T12:50:36;10.27;;;6.73;;
20230;SDS011;10274;49.022;9.338;2022-12-11T12:53:06;9.97;;;6.10;;
20230;SDS011;10274;49.022;9.338;2022-12-11T12:55:35;9.97;;;5.80;;
20230;SDS011;10274;49.022;9.338;2022-12-11T12:58:02;13.00;;;7.10;;
20230;SDS011;10274;49.022;9.338;2022-12-11T13:00:32;7.93;;;5.50;;
20230;SDS011;10274;49.022;9.338;2022-12-11T13:03:01;8.87;;;6.33;;
20230;SDS011;10274;49.022;9.338;2022-12-11T13:05:42;13.53;;;6.93;;
20230;SDS011;10274;49.022;9.338;2022-12-11T13:08:11;11.90;;;6.30;;
20230;SDS011;10274;49.022;9.338;2022-12-11T13:10:39;10.30;;;5.57;;
20230;SDS011;10274;49.022;9.338;2022-12-11T13:16:04;11.93;;;6.53;;
20230;SDS011;10274;49.022;9.338;2022-12-11T13:18:35;10.50;;;6.57;;
20230;SDS011;10274;49.022;9.338;2022-12-11T13:23:54;9.87;;;6.23;;
20230;SDS011;10274;49.022;9.338;2022-12-11T13:26:39;8.67;;;5.47;;
20230;SDS011;10274;49.022;9.338;2022-12-11T13:29:25;8.97;;;5.70;;
20230;SDS011;10274;49.022;9.338;2022-12-11T13:31:55;9.53;;;6.03;;
20230;SDS011;10274;49.022;9.338;2022-12-11T13:34:23;7.60;;;4.93;;
20230;SDS011;10274;49.022;9.338;2022-12-11T13:36:54;13.27;;;5.47;;
20230;SDS011;10274;49.022;9.338;2022-12-11T13:39:22;8.07;;;4.60;;
20230;SDS011;10274;49.022;9.338;2022-12-11T13:41:52;8.77;;;5.43;;
20230;SDS011;10274;49.022;9.338;2022-12-11T13:44:23;10.73;;;6.50;;
20230;SDS011;10274;49.022;9.338;2022-12-11T13:46:52;8.77;;;5.10;;
20230;SDS011;10274;49.022;9.338;2022-12-11T13:49:22;11.57;;;6.37;;
20230;SDS011;10274;49.022;9.338;2022-12-11T13:51:56;8.73;;;5.17;;
20230;SDS011;10274;49.022;9.338;2022-12-11T13:54:24;10.07;;;5.27;;
20230;SDS011;10274;49.022;9.338;2022-12-11T13:56:52;8.53;;;5.73;;
20230;SDS011;10274;49.022;9.338;2022-12-11T13:59:22;13.87;;;7.00;;
20230;SDS011;10274;49.022;9.338;2022-12-11T14:01:52;11.63;;;6.90;;
20230;SDS011;10274;49.022;9.338;2022-12-11T14:04:20;9.73;;;7.43;;
20230;SDS011;10274;49.022;9.338;2022-12-11T14:06:49;8.23;;;5.77;;
20230;SDS011;10274;49.022;9.338;2022-12-11T14:09:17;8.70;;;5.97;;
20230;SDS011;10274;49.022;9.338;2022-12-11T14:11:48;9.83;;;5.90;;
20230;SDS011;10274;49.022;9.338;2022-12-11T14:14:16;9.37;;;6.03;;
20230;SDS011;10274;49.022;9.338;2022-12-11T14:16:46;10.90;;;7.37;;
20230;SDS011;10274;49.022;9.338;2022-12-11T14:19:15;9.77;;;6.60;;
20230;SDS011;10274;49.022;9.338;2022-12-11T14:21:53;9.37;;;7.20;;
20230;SDS011;10274;49.022;9.338;2022-12-11T14:24:23;10.13;;;5.90;;
20230;SDS011;10274;49.022;9.338;2022-12-11T14:26:51;8.40;;;5.23;;
20230;SDS011;10274;49.022;9.338;2022-12-11T14:29:22;11.83;;;6.07;;
20230;SDS011;10274;49.022;9.338;2022-12-11T14:31:51;9.83;;;5.20;;
20230;SDS011;10274;49.022;9.338;2022-12-11T14:34:21;8.67;;;4.70;;
20230;SDS011;10274;49.022;9.338;2022-12-11T14:36:51;8.87;;;5.60;;
20230;SDS011;10274;49.022;9.338;2022-12-11T14:39:19;8.27;;;5.53;;
20230;SDS011;10274;49.022;9.338;2022-12-11T14:41:52;8.20;;;5.07;;
20230;SDS011;10274;49.022;9.338;2022-12-11T14:44:26;8.53;;;5.30;;
20230;SDS011;10274;49.022;9.338;2022-12-11T14:46:56;7.70;;;4.50;;
20230;SDS011;10274;49.022;9.338;2022-12-11T14:49:26;8.80;;;4.57;;
20230;SDS011;10274;49.022;9.338;2022-12-11T14:52:06;8.30;;;5.43;;
20230;SDS011;10274;49.022;9.338;2022-12-11T14:54:44;7.40;;;4.93;;
20230;SDS011;10274;49.022;9.338;2022-12-11T14:57:17;8.27;;;5.83;;
20230;SDS011;10274;49.022;9.338;2022-12-11T14:59:45;12.57;;;6.30;;